EWG1T EDDH-LFLB
Flight info
| Callsign | EWG1T |
|---|---|
| Flight time | 1h 25m |
| Altitude | 36000 |
| Route | IDEKO N850 GISEM DCT TOBAK DCT ESAMA DCT BOMBI DCT UBENO DCT KRH T715 PABLA Y163 HERBI Y164 OLBEN N869 NEMOS Y58 SALEV |
| Aircraft | A320/M-SDE3FGHIRWY/LB1 |
Departure
| Time | 2026-04-22 20:02 |
|---|---|
| Airport | Hamburg Helmut Schmidt Airport (EDDH) |
Arrival
| Time | 2026-04-22 21:28 |
|---|---|
| Airport | Chambéry Aix les Bains airport (LFLB) |
| Time | Latitude | Longitude | Altitude | Speed | Heading |
|---|---|---|---|---|---|
| 2026-04-22 19:22 | 53.62772 | 10.00271 | 49 ft | 0 kts | 63° |
| 2026-04-22 19:53 | 53.62760 | 10.00236 | 48 ft | 4 kts | 56° |
| 2026-04-22 19:54 | 53.62744 | 10.00200 | 45 ft | 4 kts | 39° |
| 2026-04-22 19:54 | 53.62722 | 10.00181 | 45 ft | 4 kts | 349° |
| 2026-04-22 19:54 | 53.62712 | 10.00186 | 47 ft | 1 kts | 333° |
| 2026-04-22 19:54 | 53.62711 | 10.00187 | 47 ft | 0 kts | 333° |
| 2026-04-22 19:57 | 53.62730 | 10.00171 | 44 ft | 6 kts | 333° |
| 2026-04-22 19:57 | 53.62761 | 10.00144 | 48 ft | 4 kts | 333° |
| 2026-04-22 19:58 | 53.62783 | 10.00125 | 46 ft | 3 kts | 333° |
| 2026-04-22 19:58 | 53.62810 | 10.00102 | 48 ft | 4 kts | 333° |
| 2026-04-22 19:58 | 53.62843 | 10.00068 | 48 ft | 7 kts | 320° |
| 2026-04-22 19:58 | 53.62855 | 9.99992 | 48 ft | 8 kts | 256° |
| 2026-04-22 19:59 | 53.62844 | 9.99955 | 46 ft | 0 kts | 243° |
| 2026-04-22 20:00 | 53.62855 | 9.99756 | 45 ft | 0 kts | 332° |
| 2026-04-22 20:01 | 53.62856 | 9.99755 | 45 ft | 3 kts | 332° |
| 2026-04-22 20:01 | 53.63105 | 9.99540 | 45 ft | 77 kts | 333° |
| 2026-04-22 20:02 | 53.63768 | 9.98966 | 49 ft | 135 kts | 333° |
| 2026-04-22 20:02 | 53.64711 | 9.98154 | 332 ft | 155 kts | 332° |
| 2026-04-22 20:02 | 53.65667 | 9.97358 | 1148 ft | 152 kts | 332° |
| 2026-04-22 20:02 | 53.66632 | 9.96544 | 1834 ft | 163 kts | 332° |
| 2026-04-22 20:03 | 53.67707 | 9.95617 | 2269 ft | 185 kts | 332° |
| 2026-04-22 20:03 | 53.68917 | 9.94574 | 2857 ft | 203 kts | 332° |
| 2026-04-22 20:03 | 53.70180 | 9.93484 | 3745 ft | 205 kts | 333° |
| 2026-04-22 20:03 | 53.71284 | 9.91966 | 4492 ft | 211 kts | 301° |
| 2026-04-22 20:04 | 53.71582 | 9.89466 | 5051 ft | 235 kts | 266° |
| 2026-04-22 20:04 | 53.71215 | 9.86617 | 5444 ft | 262 kts | 256° |
| 2026-04-22 20:04 | 53.70612 | 9.83641 | 6197 ft | 272 kts | 252° |
| 2026-04-22 20:04 | 53.69934 | 9.80623 | 7036 ft | 278 kts | 252° |
| 2026-04-22 20:05 | 53.69242 | 9.77545 | 7858 ft | 282 kts | 252° |
| 2026-04-22 20:05 | 53.68560 | 9.74407 | 8681 ft | 287 kts | 253° |
| 2026-04-22 20:05 | 53.67893 | 9.71209 | 9539 ft | 291 kts | 253° |
| 2026-04-22 20:05 | 53.67243 | 9.67989 | 10343 ft | 296 kts | 254° |
| 2026-04-22 20:06 | 53.66467 | 9.64678 | 10785 ft | 316 kts | 244° |
| 2026-04-22 20:06 | 53.65152 | 9.61536 | 11056 ft | 341 kts | 227° |
| 2026-04-22 20:06 | 53.63285 | 9.58983 | 11634 ft | 351 kts | 211° |
| 2026-04-22 20:06 | 53.61040 | 9.57325 | 12343 ft | 355 kts | 194° |
| 2026-04-22 20:07 | 53.58595 | 9.56631 | 13088 ft | 358 kts | 185° |
| 2026-04-22 20:07 | 53.56112 | 9.56138 | 13860 ft | 361 kts | 185° |
| 2026-04-22 20:07 | 53.53607 | 9.55642 | 14548 ft | 364 kts | 185° |
| 2026-04-22 20:07 | 53.51080 | 9.55141 | 15228 ft | 367 kts | 185° |
| 2026-04-22 20:08 | 53.48532 | 9.54637 | 15900 ft | 370 kts | 185° |
| 2026-04-22 20:08 | 53.45970 | 9.54133 | 16571 ft | 372 kts | 185° |
| 2026-04-22 20:08 | 53.43390 | 9.53630 | 17226 ft | 375 kts | 185° |
| 2026-04-22 20:08 | 53.40788 | 9.53120 | 17889 ft | 378 kts | 185° |
| 2026-04-22 20:09 | 53.38165 | 9.52602 | 18540 ft | 381 kts | 185° |
| 2026-04-22 20:09 | 53.35521 | 9.52080 | 19104 ft | 384 kts | 185° |
| 2026-04-22 20:09 | 53.32857 | 9.51557 | 19670 ft | 387 kts | 185° |
| 2026-04-22 20:09 | 53.30180 | 9.51032 | 20265 ft | 389 kts | 185° |
| 2026-04-22 20:10 | 53.27488 | 9.50505 | 20859 ft | 391 kts | 185° |
| 2026-04-22 20:10 | 53.24774 | 9.49976 | 21450 ft | 393 kts | 185° |
| 2026-04-22 20:10 | 53.22054 | 9.49451 | 22024 ft | 395 kts | 185° |
| 2026-04-22 20:10 | 53.19315 | 9.48925 | 22596 ft | 397 kts | 185° |
| 2026-04-22 20:11 | 53.16594 | 9.48403 | 23153 ft | 400 kts | 185° |
| 2026-04-22 20:11 | 53.13788 | 9.47855 | 23714 ft | 402 kts | 185° |
| 2026-04-22 20:11 | 53.11041 | 9.47316 | 24189 ft | 404 kts | 185° |
| 2026-04-22 20:11 | 53.08240 | 9.46766 | 24636 ft | 406 kts | 184° |
| 2026-04-22 20:12 | 53.05428 | 9.46215 | 25073 ft | 408 kts | 184° |
| 2026-04-22 20:12 | 53.02603 | 9.45668 | 25493 ft | 410 kts | 183° |
| 2026-04-22 20:12 | 53.00688 | 9.45300 | 25775 ft | 411 kts | 183° |
| 2026-04-22 20:12 | 52.96917 | 9.44561 | 26315 ft | 413 kts | 183° |
| 2026-04-22 20:13 | 52.94056 | 9.43962 | 26712 ft | 415 kts | 183° |
| 2026-04-22 20:13 | 52.91186 | 9.43340 | 27103 ft | 417 kts | 183° |
| 2026-04-22 20:13 | 52.88302 | 9.42705 | 27489 ft | 419 kts | 183° |
| 2026-04-22 20:13 | 52.85404 | 9.42070 | 27868 ft | 421 kts | 182° |
| 2026-04-22 20:14 | 52.82492 | 9.41439 | 28239 ft | 423 kts | 182° |
| 2026-04-22 20:14 | 52.79573 | 9.40813 | 28598 ft | 424 kts | 182° |
| 2026-04-22 20:14 | 52.76636 | 9.40188 | 28952 ft | 426 kts | 182° |
| 2026-04-22 20:14 | 52.73689 | 9.39566 | 29291 ft | 428 kts | 182° |
| 2026-04-22 20:15 | 52.70724 | 9.38941 | 29628 ft | 430 kts | 182° |
| 2026-04-22 20:15 | 52.67749 | 9.38313 | 29951 ft | 432 kts | 181° |
| 2026-04-22 20:15 | 52.64756 | 9.37681 | 30268 ft | 434 kts | 181° |
| 2026-04-22 20:15 | 52.61755 | 9.37043 | 30554 ft | 436 kts | 182° |
| 2026-04-22 20:16 | 52.58742 | 9.36331 | 30792 ft | 439 kts | 183° |
| 2026-04-22 20:16 | 52.55716 | 9.35543 | 31027 ft | 441 kts | 183° |
| 2026-04-22 20:16 | 52.52682 | 9.34713 | 31264 ft | 443 kts | 184° |
| 2026-04-22 20:16 | 52.49640 | 9.33870 | 31490 ft | 444 kts | 184° |
| 2026-04-22 20:17 | 52.46588 | 9.33032 | 31721 ft | 445 kts | 183° |
| 2026-04-22 20:17 | 52.43531 | 9.32208 | 32037 ft | 444 kts | 183° |
| 2026-04-22 20:17 | 52.40483 | 9.31402 | 32349 ft | 444 kts | 182° |
| 2026-04-22 20:17 | 52.37429 | 9.30612 | 32659 ft | 443 kts | 182° |
| 2026-04-22 20:18 | 52.34384 | 9.29830 | 32960 ft | 443 kts | 182° |
| 2026-04-22 20:18 | 52.31344 | 9.29046 | 33258 ft | 443 kts | 182° |
| 2026-04-22 20:18 | 52.28305 | 9.28258 | 33566 ft | 442 kts | 182° |
| 2026-04-22 20:18 | 52.25263 | 9.27467 | 33877 ft | 442 kts | 182° |
| 2026-04-22 20:19 | 52.22266 | 9.26701 | 34171 ft | 441 kts | 181° |
| 2026-04-22 20:19 | 52.19228 | 9.26041 | 34441 ft | 440 kts | 180° |
| 2026-04-22 20:19 | 52.16184 | 9.25489 | 34668 ft | 440 kts | 179° |
| 2026-04-22 20:19 | 52.13139 | 9.24991 | 34872 ft | 441 kts | 179° |
| 2026-04-22 20:20 | 52.10080 | 9.24503 | 35063 ft | 442 kts | 180° |
| 2026-04-22 20:20 | 52.07015 | 9.23998 | 35259 ft | 444 kts | 180° |
| 2026-04-22 20:20 | 52.03941 | 9.23442 | 35446 ft | 446 kts | 182° |
| 2026-04-22 20:20 | 52.00862 | 9.22737 | 35628 ft | 448 kts | 184° |
| 2026-04-22 20:21 | 51.97783 | 9.21918 | 35805 ft | 450 kts | 185° |
| 2026-04-22 20:21 | 51.94699 | 9.21041 | 35991 ft | 451 kts | 185° |
| 2026-04-22 20:21 | 51.91609 | 9.20155 | 36176 ft | 451 kts | 185° |
| 2026-04-22 20:21 | 51.88506 | 9.19290 | 36320 ft | 452 kts | 185° |
| 2026-04-22 20:22 | 51.85404 | 9.18497 | 36357 ft | 450 kts | 184° |
| 2026-04-22 20:22 | 51.79218 | 9.17159 | 36356 ft | 448 kts | 182° |
| 2026-04-22 20:23 | 51.74076 | 9.16127 | 36359 ft | 448 kts | 183° |
| 2026-04-22 20:23 | 51.67879 | 9.14834 | 36357 ft | 449 kts | 183° |
| 2026-04-22 20:24 | 51.61680 | 9.13496 | 36358 ft | 450 kts | 184° |
| 2026-04-22 20:24 | 51.55472 | 9.12149 | 36355 ft | 450 kts | 184° |
| 2026-04-22 20:25 | 51.49262 | 9.10760 | 36358 ft | 451 kts | 186° |
| 2026-04-22 20:25 | 51.43089 | 9.08803 | 36355 ft | 454 kts | 189° |
| 2026-04-22 20:26 | 51.36933 | 9.06513 | 36353 ft | 454 kts | 189° |
| 2026-04-22 20:26 | 51.30764 | 9.04297 | 36353 ft | 454 kts | 189° |
| 2026-04-22 20:27 | 51.24578 | 9.02221 | 36354 ft | 454 kts | 188° |
| 2026-04-22 20:27 | 51.18379 | 9.00176 | 36354 ft | 455 kts | 188° |
| 2026-04-22 20:28 | 51.12184 | 8.98105 | 36353 ft | 455 kts | 189° |
| 2026-04-22 20:28 | 51.05969 | 8.96135 | 36352 ft | 455 kts | 187° |
| 2026-04-22 20:29 | 50.99738 | 8.94220 | 36348 ft | 456 kts | 188° |
| 2026-04-22 20:29 | 50.93510 | 8.92173 | 36347 ft | 457 kts | 189° |
| 2026-04-22 20:30 | 50.87328 | 8.90098 | 36347 ft | 457 kts | 189° |
| 2026-04-22 20:30 | 50.81058 | 8.88014 | 36347 ft | 458 kts | 189° |
| 2026-04-22 20:31 | 50.74827 | 8.85881 | 36345 ft | 458 kts | 190° |
| 2026-04-22 20:31 | 50.68600 | 8.83703 | 36345 ft | 459 kts | 190° |
| 2026-04-22 20:32 | 50.62392 | 8.81340 | 36349 ft | 460 kts | 195° |
| 2026-04-22 20:32 | 50.56187 | 8.79617 | 36342 ft | 454 kts | 177° |
| 2026-04-22 20:33 | 50.49972 | 8.80898 | 36334 ft | 450 kts | 165° |
| 2026-04-22 20:33 | 50.43835 | 8.82876 | 36321 ft | 451 kts | 165° |
| 2026-04-22 20:34 | 50.37679 | 8.84831 | 36326 ft | 452 kts | 166° |
| 2026-04-22 20:34 | 50.31469 | 8.85407 | 36326 ft | 458 kts | 184° |
| 2026-04-22 20:35 | 50.25142 | 8.84092 | 36320 ft | 459 kts | 185° |
| 2026-04-22 20:35 | 50.18802 | 8.82762 | 36321 ft | 460 kts | 185° |
| 2026-04-22 20:36 | 50.12451 | 8.81443 | 36321 ft | 460 kts | 185° |
| 2026-04-22 20:36 | 50.06097 | 8.80119 | 36320 ft | 461 kts | 186° |
| 2026-04-22 20:37 | 49.99779 | 8.78304 | 36325 ft | 463 kts | 191° |
| 2026-04-22 20:37 | 49.93513 | 8.75961 | 36321 ft | 463 kts | 192° |
| 2026-04-22 20:38 | 49.87238 | 8.73622 | 36317 ft | 463 kts | 191° |
| 2026-04-22 20:38 | 49.80947 | 8.71429 | 36322 ft | 464 kts | 191° |
| 2026-04-22 20:39 | 49.74680 | 8.69325 | 36320 ft | 464 kts | 189° |
| 2026-04-22 20:39 | 49.68287 | 8.68225 | 36321 ft | 463 kts | 184° |
| 2026-04-22 20:40 | 49.61874 | 8.67297 | 36319 ft | 463 kts | 184° |
| 2026-04-22 20:40 | 49.55454 | 8.66365 | 36325 ft | 463 kts | 184° |
| 2026-04-22 20:41 | 49.49029 | 8.65449 | 36329 ft | 464 kts | 184° |
| 2026-04-22 20:41 | 49.42600 | 8.64535 | 36332 ft | 464 kts | 184° |
| 2026-04-22 20:42 | 49.36172 | 8.63627 | 36327 ft | 464 kts | 184° |
| 2026-04-22 20:42 | 49.29736 | 8.62713 | 36327 ft | 465 kts | 184° |
| 2026-04-22 20:43 | 49.23288 | 8.61801 | 36318 ft | 465 kts | 184° |
| 2026-04-22 20:43 | 49.16841 | 8.60893 | 36307 ft | 465 kts | 184° |
| 2026-04-22 20:44 | 49.10396 | 8.59984 | 36308 ft | 465 kts | 184° |
| 2026-04-22 20:44 | 49.03936 | 8.59021 | 36307 ft | 466 kts | 188° |
| 2026-04-22 20:45 | 48.97777 | 8.56079 | 36302 ft | 465 kts | 208° |
| 2026-04-22 20:45 | 48.92460 | 8.50632 | 36300 ft | 464 kts | 218° |
| 2026-04-22 20:46 | 48.84695 | 8.41805 | 36300 ft | 464 kts | 218° |
| 2026-04-22 20:46 | 48.79343 | 8.36296 | 36301 ft | 466 kts | 207° |
| 2026-04-22 20:47 | 48.73225 | 8.33139 | 36299 ft | 466 kts | 194° |
| 2026-04-22 20:47 | 48.66903 | 8.30847 | 36296 ft | 467 kts | 194° |
| 2026-04-22 20:48 | 48.60587 | 8.28543 | 36308 ft | 467 kts | 194° |
| 2026-04-22 20:48 | 48.54269 | 8.26236 | 36295 ft | 467 kts | 194° |
| 2026-04-22 20:49 | 48.47987 | 8.23958 | 36289 ft | 467 kts | 194° |
| 2026-04-22 20:49 | 48.41667 | 8.21655 | 36288 ft | 468 kts | 194° |
| 2026-04-22 20:50 | 48.35343 | 8.19344 | 36283 ft | 468 kts | 194° |
| 2026-04-22 20:50 | 48.29015 | 8.17038 | 36286 ft | 468 kts | 194° |
| 2026-04-22 20:51 | 48.22759 | 8.14396 | 36289 ft | 466 kts | 202° |
| 2026-04-22 20:51 | 48.16689 | 8.10940 | 36281 ft | 467 kts | 202° |
| 2026-04-22 20:52 | 48.10618 | 8.07505 | 36280 ft | 467 kts | 202° |
| 2026-04-22 20:52 | 48.04534 | 8.04083 | 36285 ft | 467 kts | 202° |
| 2026-04-22 20:53 | 47.98450 | 8.00669 | 36274 ft | 467 kts | 202° |
| 2026-04-22 20:53 | 47.92363 | 7.97239 | 36275 ft | 467 kts | 203° |
| 2026-04-22 20:54 | 47.86282 | 7.93826 | 36273 ft | 467 kts | 203° |
| 2026-04-22 20:54 | 47.80232 | 7.90450 | 36270 ft | 467 kts | 203° |
| 2026-04-22 20:55 | 47.74146 | 7.87053 | 36275 ft | 467 kts | 203° |
| 2026-04-22 20:55 | 47.68058 | 7.83673 | 36273 ft | 467 kts | 203° |
| 2026-04-22 20:56 | 47.61971 | 7.80302 | 36275 ft | 467 kts | 203° |
| 2026-04-22 20:56 | 47.55879 | 7.76933 | 36275 ft | 467 kts | 203° |
| 2026-04-22 20:57 | 47.49795 | 7.73581 | 36272 ft | 467 kts | 203° |
| 2026-04-22 20:57 | 47.43707 | 7.70229 | 36268 ft | 467 kts | 204° |
| 2026-04-22 20:58 | 47.37617 | 7.66871 | 36263 ft | 467 kts | 204° |
| 2026-04-22 20:58 | 47.31771 | 7.62896 | 36239 ft | 459 kts | 218° |
| 2026-04-22 20:59 | 47.27092 | 7.56726 | 36243 ft | 447 kts | 236° |
| 2026-04-22 20:59 | 47.23249 | 7.49553 | 36239 ft | 446 kts | 237° |
| 2026-04-22 21:00 | 47.19412 | 7.42431 | 36244 ft | 447 kts | 237° |
| 2026-04-22 21:00 | 47.15545 | 7.35276 | 36244 ft | 447 kts | 237° |
| 2026-04-22 21:01 | 47.11680 | 7.28135 | 36246 ft | 446 kts | 237° |
| 2026-04-22 21:01 | 47.07803 | 7.21012 | 36244 ft | 446 kts | 237° |
| 2026-04-22 21:02 | 47.05863 | 7.17452 | 36053 ft | 446 kts | 237° |
| 2026-04-22 21:02 | 47.03930 | 7.13906 | 35799 ft | 445 kts | 237° |
| 2026-04-22 21:02 | 47.01993 | 7.10359 | 35542 ft | 445 kts | 237° |
| 2026-04-22 21:02 | 47.00064 | 7.06829 | 35291 ft | 444 kts | 237° |
| 2026-04-22 21:03 | 46.98131 | 7.03292 | 35040 ft | 444 kts | 237° |
| 2026-04-22 21:03 | 46.96200 | 6.99765 | 34798 ft | 443 kts | 237° |
| 2026-04-22 21:03 | 46.94274 | 6.96254 | 34554 ft | 441 kts | 237° |
| 2026-04-22 21:03 | 46.92178 | 6.92949 | 34320 ft | 446 kts | 228° |
| 2026-04-22 21:04 | 46.89695 | 6.90173 | 34065 ft | 452 kts | 218° |
| 2026-04-22 21:04 | 46.86895 | 6.88026 | 33594 ft | 456 kts | 208° |
| 2026-04-22 21:04 | 46.83957 | 6.86256 | 32913 ft | 456 kts | 208° |
| 2026-04-22 21:04 | 46.81028 | 6.84512 | 32331 ft | 453 kts | 208° |
| 2026-04-22 21:05 | 46.78113 | 6.82782 | 31768 ft | 451 kts | 208° |
| 2026-04-22 21:05 | 46.75220 | 6.81060 | 31200 ft | 448 kts | 208° |
| 2026-04-22 21:05 | 46.72339 | 6.79341 | 30638 ft | 446 kts | 209° |
| 2026-04-22 21:05 | 46.69481 | 6.77627 | 30057 ft | 443 kts | 210° |
| 2026-04-22 21:06 | 46.66824 | 6.75629 | 29550 ft | 428 kts | 220° |
| 2026-04-22 21:06 | 46.64478 | 6.73076 | 29033 ft | 413 kts | 230° |
| 2026-04-22 21:06 | 46.62503 | 6.70141 | 28592 ft | 401 kts | 236° |
| 2026-04-22 21:06 | 46.60658 | 6.67124 | 28132 ft | 396 kts | 236° |
| 2026-04-22 21:07 | 46.58833 | 6.64154 | 27697 ft | 392 kts | 236° |
| 2026-04-22 21:07 | 46.57025 | 6.61224 | 27265 ft | 388 kts | 236° |
| 2026-04-22 21:07 | 46.55834 | 6.59294 | 26988 ft | 385 kts | 236° |
| 2026-04-22 21:07 | 46.54053 | 6.56411 | 26573 ft | 381 kts | 235° |
| 2026-04-22 21:08 | 46.52291 | 6.53563 | 26166 ft | 377 kts | 235° |
| 2026-04-22 21:08 | 46.50542 | 6.50741 | 25745 ft | 374 kts | 235° |
| 2026-04-22 21:08 | 46.48806 | 6.47944 | 25331 ft | 371 kts | 234° |
| 2026-04-22 21:08 | 46.47085 | 6.45170 | 24886 ft | 368 kts | 234° |
| 2026-04-22 21:09 | 46.45348 | 6.42446 | 24449 ft | 367 kts | 233° |
| 2026-04-22 21:09 | 46.43571 | 6.39785 | 24001 ft | 366 kts | 231° |
| 2026-04-22 21:09 | 46.41779 | 6.37168 | 23506 ft | 365 kts | 231° |
| 2026-04-22 21:09 | 46.39988 | 6.34578 | 23044 ft | 362 kts | 231° |
| 2026-04-22 21:10 | 46.38213 | 6.32009 | 22587 ft | 359 kts | 231° |
| 2026-04-22 21:10 | 46.36453 | 6.29450 | 22137 ft | 357 kts | 231° |
| 2026-04-22 21:10 | 46.34711 | 6.26904 | 21697 ft | 355 kts | 231° |
| 2026-04-22 21:10 | 46.32987 | 6.24375 | 21261 ft | 353 kts | 230° |
| 2026-04-22 21:11 | 46.31356 | 6.21977 | 20847 ft | 351 kts | 230° |
| 2026-04-22 21:11 | 46.29642 | 6.19458 | 20404 ft | 350 kts | 230° |
| 2026-04-22 21:11 | 46.27938 | 6.16952 | 19972 ft | 349 kts | 230° |
| 2026-04-22 21:11 | 46.26106 | 6.14639 | 19532 ft | 353 kts | 218° |
| 2026-04-22 21:12 | 46.23952 | 6.12896 | 19088 ft | 357 kts | 205° |
| 2026-04-22 21:12 | 46.21574 | 6.11811 | 18647 ft | 359 kts | 195° |
| 2026-04-22 21:12 | 46.19152 | 6.10939 | 18206 ft | 358 kts | 195° |
| 2026-04-22 21:12 | 46.16742 | 6.10060 | 17795 ft | 356 kts | 195° |
| 2026-04-22 21:13 | 46.14351 | 6.09181 | 17397 ft | 353 kts | 195° |
| 2026-04-22 21:13 | 46.11980 | 6.08307 | 17004 ft | 351 kts | 195° |
| 2026-04-22 21:13 | 46.09641 | 6.07360 | 16643 ft | 348 kts | 202° |
| 2026-04-22 21:13 | 46.07479 | 6.05843 | 16278 ft | 343 kts | 214° |
| 2026-04-22 21:14 | 46.05611 | 6.03741 | 16016 ft | 340 kts | 226° |
| 2026-04-22 21:14 | 46.04034 | 6.01285 | 15768 ft | 338 kts | 230° |
| 2026-04-22 21:14 | 46.02462 | 5.98779 | 15515 ft | 337 kts | 230° |
| 2026-04-22 21:14 | 46.00891 | 5.96291 | 15266 ft | 335 kts | 230° |
| 2026-04-22 21:15 | 45.99319 | 5.93817 | 15021 ft | 334 kts | 230° |
| 2026-04-22 21:15 | 45.97765 | 5.91351 | 14778 ft | 332 kts | 230° |
| 2026-04-22 21:15 | 45.96246 | 5.88852 | 14533 ft | 331 kts | 231° |
| 2026-04-22 21:15 | 45.94753 | 5.86344 | 14287 ft | 330 kts | 231° |
| 2026-04-22 21:16 | 45.93105 | 5.84046 | 14049 ft | 330 kts | 223° |
| 2026-04-22 21:16 | 45.91374 | 5.81883 | 13796 ft | 329 kts | 222° |
| 2026-04-22 21:16 | 45.89643 | 5.79740 | 13521 ft | 328 kts | 222° |
| 2026-04-22 21:16 | 45.87921 | 5.77622 | 13245 ft | 324 kts | 222° |
| 2026-04-22 21:17 | 45.86224 | 5.75541 | 12992 ft | 318 kts | 222° |
| 2026-04-22 21:17 | 45.84555 | 5.73496 | 12726 ft | 314 kts | 222° |
| 2026-04-22 21:17 | 45.82906 | 5.71472 | 12465 ft | 310 kts | 222° |
| 2026-04-22 21:17 | 45.81277 | 5.69471 | 12202 ft | 306 kts | 222° |
| 2026-04-22 21:18 | 45.79818 | 5.67316 | 11948 ft | 299 kts | 238° |
| 2026-04-22 21:18 | 45.78951 | 5.64662 | 11697 ft | 292 kts | 258° |
| 2026-04-22 21:18 | 45.78764 | 5.61817 | 11439 ft | 285 kts | 277° |
| 2026-04-22 21:18 | 45.79249 | 5.59124 | 11194 ft | 276 kts | 299° |
| 2026-04-22 21:19 | 45.80432 | 5.57038 | 10938 ft | 268 kts | 325° |
| 2026-04-22 21:19 | 45.82110 | 5.56020 | 10691 ft | 261 kts | 353° |
| 2026-04-22 21:19 | 45.83912 | 5.56136 | 10448 ft | 259 kts | 7° |
| 2026-04-22 21:19 | 45.85671 | 5.56599 | 10200 ft | 256 kts | 21° |
| 2026-04-22 21:20 | 45.87035 | 5.58142 | 9951 ft | 252 kts | 58° |
| 2026-04-22 21:20 | 45.87467 | 5.60491 | 9686 ft | 249 kts | 92° |
| 2026-04-22 21:20 | 45.87263 | 5.62938 | 9426 ft | 246 kts | 97° |
| 2026-04-22 21:20 | 45.87024 | 5.65350 | 9165 ft | 242 kts | 97° |
| 2026-04-22 21:21 | 45.86783 | 5.67733 | 8902 ft | 241 kts | 97° |
| 2026-04-22 21:21 | 45.86541 | 5.70100 | 8657 ft | 240 kts | 97° |
| 2026-04-22 21:21 | 45.86298 | 5.72469 | 8392 ft | 239 kts | 97° |
| 2026-04-22 21:21 | 45.86064 | 5.74781 | 8121 ft | 228 kts | 97° |
| 2026-04-22 21:22 | 45.85844 | 5.76976 | 7867 ft | 217 kts | 97° |
| 2026-04-22 21:22 | 45.85755 | 5.79065 | 7672 ft | 204 kts | 85° |
| 2026-04-22 21:22 | 45.85838 | 5.81051 | 7356 ft | 196 kts | 86° |
| 2026-04-22 21:22 | 45.85880 | 5.82968 | 6993 ft | 192 kts | 96° |
| 2026-04-22 21:23 | 45.85428 | 5.84724 | 6744 ft | 187 kts | 124° |
| 2026-04-22 21:23 | 45.84479 | 5.85956 | 6516 ft | 183 kts | 151° |
| 2026-04-22 21:23 | 45.83276 | 5.86431 | 6234 ft | 179 kts | 176° |
| 2026-04-22 21:23 | 45.82038 | 5.86530 | 5898 ft | 178 kts | 176° |
| 2026-04-22 21:24 | 45.80799 | 5.86630 | 5551 ft | 179 kts | 176° |
| 2026-04-22 21:24 | 45.79553 | 5.86732 | 5200 ft | 180 kts | 176° |
| 2026-04-22 21:24 | 45.78300 | 5.86835 | 4839 ft | 180 kts | 176° |
| 2026-04-22 21:24 | 45.77046 | 5.86938 | 4472 ft | 181 kts | 176° |
| 2026-04-22 21:25 | 45.75803 | 5.87039 | 4115 ft | 180 kts | 176° |
| 2026-04-22 21:25 | 45.74570 | 5.87141 | 3781 ft | 172 kts | 176° |
| 2026-04-22 21:25 | 45.73401 | 5.87236 | 3429 ft | 164 kts | 175° |
| 2026-04-22 21:25 | 45.72286 | 5.87328 | 3092 ft | 157 kts | 176° |
| 2026-04-22 21:26 | 45.71217 | 5.87415 | 2771 ft | 151 kts | 176° |
| 2026-04-22 21:26 | 45.70179 | 5.87501 | 2451 ft | 148 kts | 176° |
| 2026-04-22 21:26 | 45.69159 | 5.87584 | 2162 ft | 146 kts | 177° |
| 2026-04-22 21:26 | 45.68148 | 5.87667 | 1881 ft | 145 kts | 176° |
| 2026-04-22 21:27 | 45.67146 | 5.87749 | 1598 ft | 144 kts | 176° |
| 2026-04-22 21:27 | 45.66149 | 5.87827 | 1312 ft | 143 kts | 176° |
| 2026-04-22 21:27 | 45.65153 | 5.87914 | 1010 ft | 143 kts | 176° |
| 2026-04-22 21:27 | 45.64160 | 5.87990 | 794 ft | 137 kts | 176° |
| 2026-04-22 21:28 | 45.63362 | 5.88063 | 778 ft | 76 kts | 176° |
| 2026-04-22 21:28 | 45.63063 | 5.88091 | 779 ft | 24 kts | 176° |
| 2026-04-22 21:28 | 45.62948 | 5.88130 | 779 ft | 10 kts | 159° |
| 2026-04-22 21:28 | 45.62921 | 5.88091 | 778 ft | 6 kts | 307° |
| 2026-04-22 21:29 | 45.62979 | 5.88086 | 778 ft | 11 kts | 1° |
| 2026-04-22 21:29 | 45.63062 | 5.88087 | 779 ft | 13 kts | 356° |
| 2026-04-22 21:29 | 45.63169 | 5.88077 | 782 ft | 18 kts | 358° |
| 2026-04-22 21:29 | 45.63303 | 5.88067 | 779 ft | 21 kts | 356° |
| 2026-04-22 21:30 | 45.63457 | 5.88055 | 780 ft | 23 kts | 356° |
| 2026-04-22 21:30 | 45.63617 | 5.88040 | 780 ft | 24 kts | 355° |
| 2026-04-22 21:30 | 45.63789 | 5.88024 | 781 ft | 25 kts | 356° |
| 2026-04-22 21:30 | 45.63947 | 5.88012 | 783 ft | 20 kts | 358° |
| 2026-04-22 21:31 | 45.64031 | 5.88034 | 783 ft | 12 kts | 50° |
| 2026-04-22 21:31 | 45.64045 | 5.88141 | 783 ft | 10 kts | 84° |
| 2026-04-22 21:31 | 45.64038 | 5.88219 | 783 ft | 7 kts | 132° |
| 2026-04-22 21:31 | 45.63989 | 5.88234 | 782 ft | 8 kts | 175° |
| 2026-04-22 21:32 | 45.63930 | 5.88239 | 780 ft | 9 kts | 178° |
| 2026-04-22 21:32 | 45.63892 | 5.88268 | 779 ft | 6 kts | 105° |
| 2026-04-22 21:32 | 45.63893 | 5.88320 | 778 ft | 3 kts | 86° |
| 2026-04-22 21:32 | 45.63894 | 5.88322 | 778 ft | 0 kts | 86° |